sensor_id;sensor_type;location;lat;lon;timestamp;pressure;altitude;pressure_sealevel;temperature;humidity
50933;BME280;36921;49.006;9.292;2024-02-14T00:00:02;99252.63;;;1.63;100.00
50933;BME280;36921;49.006;9.292;2024-02-14T00:02:28;99278.44;;;1.62;100.00
50933;BME280;36921;49.006;9.292;2024-02-14T00:04:54;99270.44;;;1.62;100.00
50933;BME280;36921;49.006;9.292;2024-02-14T00:07:22;99294.22;;;1.75;100.00
50933;BME280;36921;49.006;9.292;2024-02-14T00:09:48;99283.81;;;1.72;100.00
50933;BME280;36921;49.006;9.292;2024-02-14T00:12:13;99281.31;;;1.70;100.00
50933;BME280;36921;49.006;9.292;2024-02-14T00:14:39;99293.69;;;1.91;100.00
50933;BME280;36921;49.006;9.292;2024-02-14T00:19:46;99307.81;;;2.12;100.00
50933;BME280;36921;49.006;9.292;2024-02-14T00:22:11;99299.00;;;2.31;100.00
50933;BME280;36921;49.006;9.292;2024-02-14T00:24:37;99297.88;;;2.34;100.00
50933;BME280;36921;49.006;9.292;2024-02-14T00:27:03;99299.97;;;2.30;100.00
50933;BME280;36921;49.006;9.292;2024-02-14T00:29:29;99289.56;;;2.27;100.00
50933;BME280;36921;49.006;9.292;2024-02-14T00:31:55;99295.34;;;2.32;100.00
50933;BME280;36921;49.006;9.292;2024-02-14T00:34:20;99291.94;;;2.30;100.00
50933;BME280;36921;49.006;9.292;2024-02-14T00:36:46;99302.38;;;2.33;100.00
50933;BME280;36921;49.006;9.292;2024-02-14T00:39:12;99295.63;;;2.29;100.00
50933;BME280;36921;49.006;9.292;2024-02-14T00:41:37;99290.41;;;2.28;100.00
50933;BME280;36921;49.006;9.292;2024-02-14T00:44:03;99299.16;;;2.49;100.00
50933;BME280;36921;49.006;9.292;2024-02-14T00:46:29;99300.84;;;2.60;100.00
50933;BME280;36921;49.006;9.292;2024-02-14T00:48:54;99293.38;;;2.63;100.00
50933;BME280;36921;49.006;9.292;2024-02-14T00:51:21;99297.63;;;2.76;100.00
50933;BME280;36921;49.006;9.292;2024-02-14T00:53:46;99286.91;;;2.85;100.00
50933;BME280;36921;49.006;9.292;2024-02-14T00:56:11;99301.09;;;2.96;100.00
50933;BME280;36921;49.006;9.292;2024-02-14T00:58:37;99294.91;;;3.05;100.00
50933;BME280;36921;49.006;9.292;2024-02-14T01:01:02;99298.22;;;3.26;100.00
50933;BME280;36921;49.006;9.292;2024-02-14T01:03:28;99303.44;;;3.28;100.00
50933;BME280;36921;49.006;9.292;2024-02-14T01:05:53;99295.69;;;3.35;100.00
50933;BME280;36921;49.006;9.292;2024-02-14T01:08:20;99285.56;;;3.38;100.00
50933;BME280;36921;49.006;9.292;2024-02-14T01:10:46;99286.50;;;3.47;100.00
50933;BME280;36921;49.006;9.292;2024-02-14T01:13:12;99290.94;;;3.56;100.00
50933;BME280;36921;49.006;9.292;2024-02-14T01:15:38;99280.94;;;3.68;100.00
50933;BME280;36921;49.006;9.292;2024-02-14T01:18:03;99291.31;;;3.71;100.00
50933;BME280;36921;49.006;9.292;2024-02-14T01:20:29;99291.59;;;3.78;100.00
50933;BME280;36921;49.006;9.292;2024-02-14T01:22:54;99294.81;;;3.81;100.00
50933;BME280;36921;49.006;9.292;2024-02-14T01:25:20;99289.84;;;3.86;100.00
50933;BME280;36921;49.006;9.292;2024-02-14T01:27:46;99293.75;;;3.92;100.00
50933;BME280;36921;49.006;9.292;2024-02-14T01:30:11;99274.19;;;3.91;100.00
50933;BME280;36921;49.006;9.292;2024-02-14T01:32:37;99291.19;;;4.00;100.00
50933;BME280;36921;49.006;9.292;2024-02-14T01:35:04;99282.31;;;4.00;100.00
50933;BME280;36921;49.006;9.292;2024-02-14T01:37:29;99278.19;;;4.05;100.00
50933;BME280;36921;49.006;9.292;2024-02-14T01:39:55;99283.25;;;4.08;100.00
50933;BME280;36921;49.006;9.292;2024-02-14T01:42:21;99282.41;;;4.08;100.00
50933;BME280;36921;49.006;9.292;2024-02-14T01:44:46;99264.59;;;4.16;100.00
50933;BME280;36921;49.006;9.292;2024-02-14T01:47:12;99269.50;;;4.21;100.00
50933;BME280;36921;49.006;9.292;2024-02-14T01:49:38;99270.88;;;4.25;100.00
50933;BME280;36921;49.006;9.292;2024-02-14T01:52:04;99260.19;;;4.25;100.00
50933;BME280;36921;49.006;9.292;2024-02-14T01:54:31;99266.28;;;4.17;100.00
50933;BME280;36921;49.006;9.292;2024-02-14T01:56:57;99264.88;;;4.13;100.00
50933;BME280;36921;49.006;9.292;2024-02-14T01:59:24;99250.66;;;4.13;100.00
50933;BME280;36921;49.006;9.292;2024-02-14T02:01:50;99258.69;;;4.13;100.00
50933;BME280;36921;49.006;9.292;2024-02-14T02:04:18;99266.28;;;4.17;100.00
50933;BME280;36921;49.006;9.292;2024-02-14T02:06:44;99264.00;;;4.23;100.00
50933;BME280;36921;49.006;9.292;2024-02-14T02:09:10;99255.88;;;4.14;100.00
50933;BME280;36921;49.006;9.292;2024-02-14T02:11:52;99263.59;;;4.17;100.00
50933;BME280;36921;49.006;9.292;2024-02-14T02:14:21;99264.88;;;4.13;100.00
50933;BME280;36921;49.006;9.292;2024-02-14T02:16:47;99250.84;;;4.11;100.00
50933;BME280;36921;49.006;9.292;2024-02-14T02:19:14;99255.78;;;4.24;100.00
50933;BME280;36921;49.006;9.292;2024-02-14T02:21:41;99244.69;;;4.19;100.00
50933;BME280;36921;49.006;9.292;2024-02-14T02:24:08;99255.72;;;4.34;100.00
50933;BME280;36921;49.006;9.292;2024-02-14T02:26:39;99245.72;;;4.36;100.00
50933;BME280;36921;49.006;9.292;2024-02-14T02:29:05;99245.47;;;4.47;100.00
50933;BME280;36921;49.006;9.292;2024-02-14T02:31:31;99235.13;;;4.52;100.00
50933;BME280;36921;49.006;9.292;2024-02-14T02:33:57;99233.69;;;4.58;100.00
50933;BME280;36921;49.006;9.292;2024-02-14T02:36:24;99237.38;;;4.57;100.00
50933;BME280;36921;49.006;9.292;2024-02-14T02:38:50;99231.16;;;4.56;100.00
50933;BME280;36921;49.006;9.292;2024-02-14T02:41:15;99221.22;;;4.67;100.00
50933;BME280;36921;49.006;9.292;2024-02-14T02:43:41;99222.03;;;4.67;100.00
50933;BME280;36921;49.006;9.292;2024-02-14T02:46:09;99225.25;;;4.71;100.00
50933;BME280;36921;49.006;9.292;2024-02-14T02:48:34;99213.44;;;4.64;100.00
50933;BME280;36921;49.006;9.292;2024-02-14T02:51:01;99217.91;;;4.73;100.00
50933;BME280;36921;49.006;9.292;2024-02-14T02:53:26;99219.28;;;4.77;100.00
50933;BME280;36921;49.006;9.292;2024-02-14T02:55:52;99207.69;;;4.76;100.00
50933;BME280;36921;49.006;9.292;2024-02-14T02:58:19;99212.22;;;4.76;100.00
50933;BME280;36921;49.006;9.292;2024-02-14T03:00:46;99202.88;;;4.80;100.00
50933;BME280;36921;49.006;9.292;2024-02-14T03:03:14;99201.91;;;4.89;100.00
50933;BME280;36921;49.006;9.292;2024-02-14T03:05:40;99201.31;;;4.95;100.00
50933;BME280;36921;49.006;9.292;2024-02-14T03:08:06;99187.44;;;5.08;100.00
50933;BME280;36921;49.006;9.292;2024-02-14T03:10:33;99191.72;;;5.19;100.00
50933;BME280;36921;49.006;9.292;2024-02-14T03:12:58;99187.59;;;5.33;100.00
50933;BME280;36921;49.006;9.292;2024-02-14T03:15:24;99196.53;;;5.41;100.00
50933;BME280;36921;49.006;9.292;2024-02-14T03:17:51;99190.31;;;5.41;100.00
50933;BME280;36921;49.006;9.292;2024-02-14T03:20:16;99195.84;;;5.39;100.00
50933;BME280;36921;49.006;9.292;2024-02-14T03:22:42;99196.81;;;5.30;100.00
50933;BME280;36921;49.006;9.292;2024-02-14T03:25:20;99202.75;;;5.16;100.00
50933;BME280;36921;49.006;9.292;2024-02-14T03:27:47;99194.09;;;4.96;100.00
50933;BME280;36921;49.006;9.292;2024-02-14T03:30:16;99201.09;;;4.89;100.00
50933;BME280;36921;49.006;9.292;2024-02-14T03:32:45;99209.59;;;4.84;100.00
50933;BME280;36921;49.006;9.292;2024-02-14T03:35:11;99213.28;;;4.83;100.00
50933;BME280;36921;49.006;9.292;2024-02-14T03:37:38;99209.06;;;4.80;100.00
50933;BME280;36921;49.006;9.292;2024-02-14T03:40:05;99213.16;;;4.67;100.00
50933;BME280;36921;49.006;9.292;2024-02-14T03:42:32;99217.78;;;4.56;100.00
50933;BME280;36921;49.006;9.292;2024-02-14T03:44:58;99239.59;;;4.44;100.00
50933;BME280;36921;49.006;9.292;2024-02-14T03:47:28;99237.88;;;4.43;100.00
50933;BME280;36921;49.006;9.292;2024-02-14T03:49:54;99249.75;;;4.40;100.00
50933;BME280;36921;49.006;9.292;2024-02-14T03:52:20;99243.03;;;4.36;100.00
50933;BME280;36921;49.006;9.292;2024-02-14T03:54:48;99258.72;;;4.49;100.00
50933;BME280;36921;49.006;9.292;2024-02-14T03:57:13;99230.78;;;4.51;100.00
50933;BME280;36921;49.006;9.292;2024-02-14T03:59:39;99230.28;;;4.74;100.00
50933;BME280;36921;49.006;9.292;2024-02-14T04:02:05;99242.06;;;4.81;100.00
50933;BME280;36921;49.006;9.292;2024-02-14T04:04:36;99235.94;;;4.89;100.00
50933;BME280;36921;49.006;9.292;2024-02-14T04:07:03;99222.22;;;4.92;100.00
50933;BME280;36921;49.006;9.292;2024-02-14T04:09:28;99233.69;;;5.02;100.00
50933;BME280;36921;49.006;9.292;2024-02-14T04:11:54;99229.56;;;5.16;100.00
50933;BME280;36921;49.006;9.292;2024-02-14T04:14:20;99235.63;;;5.18;100.00
50933;BME280;36921;49.006;9.292;2024-02-14T04:16:46;99243.34;;;5.21;100.00
50933;BME280;36921;49.006;9.292;2024-02-14T04:19:11;99228.13;;;5.21;100.00
50933;BME280;36921;49.006;9.292;2024-02-14T04:21:38;99228.22;;;5.38;100.00
50933;BME280;36921;49.006;9.292;2024-02-14T04:24:04;99234.44;;;5.46;100.00
50933;BME280;36921;49.006;9.292;2024-02-14T04:26:29;99233.28;;;5.49;100.00
50933;BME280;36921;49.006;9.292;2024-02-14T04:28:54;99230.81;;;5.56;100.00
50933;BME280;36921;49.006;9.292;2024-02-14T04:31:20;99236.69;;;5.59;100.00
50933;BME280;36921;49.006;9.292;2024-02-14T04:33:45;99230.03;;;5.63;100.00
50933;BME280;36921;49.006;9.292;2024-02-14T04:36:18;99229.75;;;5.83;100.00
50933;BME280;36921;49.006;9.292;2024-02-14T04:38:44;99240.06;;;5.96;100.00
50933;BME280;36921;49.006;9.292;2024-02-14T04:41:09;99234.50;;;5.97;100.00
50933;BME280;36921;49.006;9.292;2024-02-14T04:43:35;99233.13;;;5.93;100.00
50933;BME280;36921;49.006;9.292;2024-02-14T04:46:01;99239.41;;;6.02;100.00
50933;BME280;36921;49.006;9.292;2024-02-14T04:48:26;99236.72;;;6.10;100.00
50933;BME280;36921;49.006;9.292;2024-02-14T04:50:52;99231.34;;;6.02;100.00
50933;BME280;36921;49.006;9.292;2024-02-14T04:53:17;99231.19;;;6.03;100.00
50933;BME280;36921;49.006;9.292;2024-02-14T04:55:45;99250.16;;;6.02;100.00
50933;BME280;36921;49.006;9.292;2024-02-14T04:58:10;99243.09;;;6.01;100.00
50933;BME280;36921;49.006;9.292;2024-02-14T05:00:36;99237.16;;;5.89;100.00
50933;BME280;36921;49.006;9.292;2024-02-14T05:03:01;99235.69;;;5.95;100.00
50933;BME280;36921;49.006;9.292;2024-02-14T05:05:27;99240.22;;;5.94;100.00
50933;BME280;36921;49.006;9.292;2024-02-14T05:07:53;99229.63;;;5.92;100.00
50933;BME280;36921;49.006;9.292;2024-02-14T05:10:19;99241.06;;;5.95;100.00
50933;BME280;36921;49.006;9.292;2024-02-14T05:12:44;99232.31;;;5.92;100.00
50933;BME280;36921;49.006;9.292;2024-02-14T05:15:10;99237.69;;;5.92;100.00
50933;BME280;36921;49.006;9.292;2024-02-14T05:17:38;99238.22;;;5.96;100.00
50933;BME280;36921;49.006;9.292;2024-02-14T05:20:05;99245.03;;;5.90;100.00
50933;BME280;36921;49.006;9.292;2024-02-14T05:22:36;99242.56;;;5.97;100.00
50933;BME280;36921;49.006;9.292;2024-02-14T05:25:02;99249.16;;;6.03;100.00
50933;BME280;36921;49.006;9.292;2024-02-14T05:27:27;99251.84;;;6.03;100.00
50933;BME280;36921;49.006;9.292;2024-02-14T05:29:52;99254.53;;;6.03;100.00
50933;BME280;36921;49.006;9.292;2024-02-14T05:32:18;99253.88;;;6.09;100.00
50933;BME280;36921;49.006;9.292;2024-02-14T05:34:44;99251.88;;;6.11;100.00
50933;BME280;36921;49.006;9.292;2024-02-14T05:37:09;99230.16;;;5.96;100.00
50933;BME280;36921;49.006;9.292;2024-02-14T05:39:34;99250.38;;;6.17;100.00
50933;BME280;36921;49.006;9.292;2024-02-14T05:42:00;99251.19;;;6.17;100.00
50933;BME280;36921;49.006;9.292;2024-02-14T05:44:26;99249.00;;;6.12;100.00
50933;BME280;36921;49.006;9.292;2024-02-14T05:46:52;99249.00;;;6.12;100.00
50933;BME280;36921;49.006;9.292;2024-02-14T05:49:18;99237.91;;;6.15;100.00
50933;BME280;36921;49.006;9.292;2024-02-14T05:51:44;99237.09;;;6.23;100.00
50933;BME280;36921;49.006;9.292;2024-02-14T05:54:09;99231.38;;;6.18;100.00
50933;BME280;36921;49.006;9.292;2024-02-14T05:56:34;99223.66;;;6.15;100.00
50933;BME280;36921;49.006;9.292;2024-02-14T05:59:00;99232.41;;;6.25;100.00
50933;BME280;36921;49.006;9.292;2024-02-14T06:01:25;99232.41;;;6.25;100.00
50933;BME280;36921;49.006;9.292;2024-02-14T06:03:51;99227.88;;;6.34;100.00
50933;BME280;36921;49.006;9.292;2024-02-14T06:06:16;99238.97;;;6.39;100.00
50933;BME280;36921;49.006;9.292;2024-02-14T06:08:41;99241.69;;;6.47;100.00
50933;BME280;36921;49.006;9.292;2024-02-14T06:11:07;99243.38;;;6.48;100.00
50933;BME280;36921;49.006;9.292;2024-02-14T06:13:33;99232.13;;;6.53;100.00
50933;BME280;36921;49.006;9.292;2024-02-14T06:15:59;99230.75;;;6.57;100.00
50933;BME280;36921;49.006;9.292;2024-02-14T06:18:24;99232.81;;;6.55;100.00
50933;BME280;36921;49.006;9.292;2024-02-14T06:20:49;99185.41;;;6.46;100.00
50933;BME280;36921;49.006;9.292;2024-02-14T06:23:15;99194.97;;;6.48;100.00
50933;BME280;36921;49.006;9.292;2024-02-14T06:25:40;99231.78;;;6.56;100.00
50933;BME280;36921;49.006;9.292;2024-02-14T06:28:09;99222.69;;;6.41;100.00
50933;BME280;36921;49.006;9.292;2024-02-14T06:30:35;99225.03;;;6.44;100.00
50933;BME280;36921;49.006;9.292;2024-02-14T06:33:00;99242.88;;;6.53;100.00
50933;BME280;36921;49.006;9.292;2024-02-14T06:35:27;99244.38;;;6.47;100.00
50933;BME280;36921;49.006;9.292;2024-02-14T06:37:52;99228.41;;;6.46;100.00
50933;BME280;36921;49.006;9.292;2024-02-14T06:40:17;99249.91;;;6.54;100.00
50933;BME280;36921;49.006;9.292;2024-02-14T06:42:43;99224.69;;;6.47;100.00
50933;BME280;36921;49.006;9.292;2024-02-14T06:45:08;99241.19;;;6.60;100.00
50933;BME280;36921;49.006;9.292;2024-02-14T06:47:33;99251.09;;;6.68;100.00
50933;BME280;36921;49.006;9.292;2024-02-14T06:49:59;99246.59;;;6.68;100.00
50933;BME280;36921;49.006;9.292;2024-02-14T06:52:24;99236.16;;;6.73;100.00
50933;BME280;36921;49.006;9.292;2024-02-14T06:54:49;99252.28;;;6.90;100.00
50933;BME280;36921;49.006;9.292;2024-02-14T06:57:16;99262.72;;;6.93;100.00
50933;BME280;36921;49.006;9.292;2024-02-14T06:59:41;99266.22;;;6.93;100.00
50933;BME280;36921;49.006;9.292;2024-02-14T07:02:07;99267.75;;;6.96;100.00
50933;BME280;36921;49.006;9.292;2024-02-14T07:04:32;99264.22;;;6.95;100.00
50933;BME280;36921;49.006;9.292;2024-02-14T07:06:58;99258.50;;;6.90;100.00
50933;BME280;36921;49.006;9.292;2024-02-14T07:09:23;99250.28;;;6.92;100.00
50933;BME280;36921;49.006;9.292;2024-02-14T07:11:50;99267.41;;;7.15;100.00
50933;BME280;36921;49.006;9.292;2024-02-14T07:14:16;99257.16;;;7.02;100.00
50933;BME280;36921;49.006;9.292;2024-02-14T07:16:41;99244.03;;;6.91;100.00
50933;BME280;36921;49.006;9.292;2024-02-14T07:19:06;99272.47;;;7.10;100.00
50933;BME280;36921;49.006;9.292;2024-02-14T07:21:32;99253.09;;;7.07;100.00
50933;BME280;36921;49.006;9.292;2024-02-14T07:23:58;99265.72;;;7.14;100.00
50933;BME280;36921;49.006;9.292;2024-02-14T07:26:23;99277.63;;;7.28;100.00
50933;BME280;36921;49.006;9.292;2024-02-14T07:28:49;99279.31;;;7.37;100.00
50933;BME280;36921;49.006;9.292;2024-02-14T07:31:14;99268.06;;;7.34;100.00
50933;BME280;36921;49.006;9.292;2024-02-14T07:33:39;99277.09;;;7.49;100.00
50933;BME280;36921;49.006;9.292;2024-02-14T07:36:05;99272.03;;;7.54;100.00
50933;BME280;36921;49.006;9.292;2024-02-14T07:38:30;99273.53;;;7.57;100.00
50933;BME280;36921;49.006;9.292;2024-02-14T07:40:56;99288.63;;;7.74;100.00
50933;BME280;36921;49.006;9.292;2024-02-14T07:43:21;99262.50;;;7.83;100.00
50933;BME280;36921;49.006;9.292;2024-02-14T07:45:46;99291.91;;;8.40;100.00
50933;BME280;36921;49.006;9.292;2024-02-14T07:48:13;99281.81;;;8.65;100.00
50933;BME280;36921;49.006;9.292;2024-02-14T07:50:38;99295.66;;;8.85;100.00
50933;BME280;36921;49.006;9.292;2024-02-14T07:53:04;99276.03;;;9.14;100.00
50933;BME280;36921;49.006;9.292;2024-02-14T07:55:29;99292.78;;;9.62;100.00
50933;BME280;36921;49.006;9.292;2024-02-14T07:57:54;99297.53;;;10.05;100.00
50933;BME280;36921;49.006;9.292;2024-02-14T08:00:20;99303.75;;;10.20;100.00
50933;BME280;36921;49.006;9.292;2024-02-14T08:02:50;99313.41;;;10.59;100.00
50933;BME280;36921;49.006;9.292;2024-02-14T08:05:16;99305.47;;;10.58;100.00
50933;BME280;36921;49.006;9.292;2024-02-14T08:07:41;99308.97;;;10.37;100.00
50933;BME280;36921;49.006;9.292;2024-02-14T08:10:07;99306.56;;;10.12;100.00
50933;BME280;36921;49.006;9.292;2024-02-14T08:12:32;99311.81;;;9.31;100.00
50933;BME280;36921;49.006;9.292;2024-02-14T08:14:58;99309.16;;;9.08;100.00
50933;BME280;36921;49.006;9.292;2024-02-14T08:17:28;99314.16;;;8.96;100.00
50933;BME280;36921;49.006;9.292;2024-02-14T08:19:53;99300.94;;;8.78;100.00
50933;BME280;36921;49.006;9.292;2024-02-14T08:22:18;99301.25;;;8.84;100.00
50933;BME280;36921;49.006;9.292;2024-02-14T08:24:43;99310.53;;;9.04;100.00
50933;BME280;36921;49.006;9.292;2024-02-14T08:27:09;99314.75;;;9.21;100.00
50933;BME280;36921;49.006;9.292;2024-02-14T08:29:34;99291.75;;;9.11;100.00
50933;BME280;36921;49.006;9.292;2024-02-14T08:31:59;99308.59;;;9.13;100.00
50933;BME280;36921;49.006;9.292;2024-02-14T08:34:25;99295.41;;;8.95;100.00
50933;BME280;36921;49.006;9.292;2024-02-14T08:36:50;99320.47;;;9.04;100.00
50933;BME280;36921;49.006;9.292;2024-02-14T08:39:15;99301.75;;;9.25;100.00
50933;BME280;36921;49.006;9.292;2024-02-14T08:41:43;99313.28;;;9.57;100.00
50933;BME280;36921;49.006;9.292;2024-02-14T08:44:10;99319.34;;;9.88;100.00
50933;BME280;36921;49.006;9.292;2024-02-14T08:46:35;99296.25;;;10.01;100.00
50933;BME280;36921;49.006;9.292;2024-02-14T08:49:01;99302.66;;;9.85;100.00
50933;BME280;36921;49.006;9.292;2024-02-14T08:51:34;99286.63;;;9.69;100.00
50933;BME280;36921;49.006;9.292;2024-02-14T08:53:59;99301.38;;;9.96;100.00
50933;BME280;36921;49.006;9.292;2024-02-14T08:56:25;99291.66;;;10.01;100.00
50933;BME280;36921;49.006;9.292;2024-02-14T08:58:50;99307.50;;;10.34;100.00
50933;BME280;36921;49.006;9.292;2024-02-14T09:01:16;99307.84;;;11.04;100.00
50933;BME280;36921;49.006;9.292;2024-02-14T09:03:44;99295.19;;;11.11;100.00
50933;BME280;36921;49.006;9.292;2024-02-14T09:06:14;99292.69;;;10.88;100.00
50933;BME280;36921;49.006;9.292;2024-02-14T09:08:40;99316.09;;;10.38;100.00
50933;BME280;36921;49.006;9.292;2024-02-14T09:11:06;99317.28;;;10.20;100.00
50933;BME280;36921;49.006;9.292;2024-02-14T09:13:33;99304.53;;;9.99;100.00
50933;BME280;36921;49.006;9.292;2024-02-14T09:15:58;99320.16;;;9.74;100.00
50933;BME280;36921;49.006;9.292;2024-02-14T09:18:24;99308.63;;;9.80;100.00
50933;BME280;36921;49.006;9.292;2024-02-14T09:20:50;99315.25;;;9.78;100.00
50933;BME280;36921;49.006;9.292;2024-02-14T09:23:16;99323.72;;;9.90;100.00
50933;BME280;36921;49.006;9.292;2024-02-14T09:25:46;99316.91;;;9.79;100.00
50933;BME280;36921;49.006;9.292;2024-02-14T09:28:12;99325.41;;;9.76;100.00
50933;BME280;36921;49.006;9.292;2024-02-14T09:30:39;99320.09;;;9.68;100.00
50933;BME280;36921;49.006;9.292;2024-02-14T09:33:04;99316.84;;;9.72;100.00
50933;BME280;36921;49.006;9.292;2024-02-14T09:35:30;99307.03;;;9.56;100.00
50933;BME280;36921;49.006;9.292;2024-02-14T09:37:55;99308.53;;;9.59;100.00
50933;BME280;36921;49.006;9.292;2024-02-14T09:40:21;99310.41;;;9.88;100.00
50933;BME280;36921;49.006;9.292;2024-02-14T09:42:55;99297.31;;;10.21;100.00
50933;BME280;36921;49.006;9.292;2024-02-14T09:45:25;99310.63;;;10.74;100.00
50933;BME280;36921;49.006;9.292;2024-02-14T09:47:51;99302.81;;;11.29;100.00
50933;BME280;36921;49.006;9.292;2024-02-14T09:50:17;99298.16;;;12.00;100.00
50933;BME280;36921;49.006;9.292;2024-02-14T09:52:43;99302.53;;;12.01;100.00
50933;BME280;36921;49.006;9.292;2024-02-14T09:55:09;99293.88;;;11.84;100.00
50933;BME280;36921;49.006;9.292;2024-02-14T09:57:39;99303.00;;;12.12;100.00
50933;BME280;36921;49.006;9.292;2024-02-14T10:00:06;99296.38;;;12.21;100.00
50933;BME280;36921;49.006;9.292;2024-02-14T10:02:35;99294.69;;;12.20;100.00
50933;BME280;36921;49.006;9.292;2024-02-14T10:05:00;99301.22;;;12.32;100.00
50933;BME280;36921;49.006;9.292;2024-02-14T10:07:26;99300.22;;;12.40;100.00
50933;BME280;36921;49.006;9.292;2024-02-14T10:09:51;99310.50;;;12.58;100.00
50933;BME280;36921;49.006;9.292;2024-02-14T10:12:16;99309.09;;;12.75;100.00
50933;BME280;36921;49.006;9.292;2024-02-14T10:14:43;99315.69;;;12.46;100.00
50933;BME280;36921;49.006;9.292;2024-02-14T10:17:08;99305.91;;;12.10;100.00
50933;BME280;36921;49.006;9.292;2024-02-14T10:19:35;99311.84;;;12.27;100.00
50933;BME280;36921;49.006;9.292;2024-02-14T10:22:00;99306.06;;;12.02;100.00
50933;BME280;36921;49.006;9.292;2024-02-14T10:24:29;99303.50;;;12.28;100.00
50933;BME280;36921;49.006;9.292;2024-02-14T10:26:56;99306.94;;;12.57;100.00
50933;BME280;36921;49.006;9.292;2024-02-14T10:29:22;99287.16;;;12.83;100.00
50933;BME280;36921;49.006;9.292;2024-02-14T10:31:48;99296.84;;;13.46;100.00
50933;BME280;36921;49.006;9.292;2024-02-14T10:34:13;99307.91;;;13.77;100.00
50933;BME280;36921;49.006;9.292;2024-02-14T10:36:39;99288.69;;;13.59;100.00
50933;BME280;36921;49.006;9.292;2024-02-14T10:39:07;99297.22;;;13.82;100.00
50933;BME280;36921;49.006;9.292;2024-02-14T10:41:35;99297.06;;;13.64;100.00
50933;BME280;36921;49.006;9.292;2024-02-14T10:44:04;99292.81;;;13.95;100.00
50933;BME280;36921;49.006;9.292;2024-02-14T10:46:32;99297.78;;;14.18;100.00
50933;BME280;36921;49.006;9.292;2024-02-14T10:49:05;99297.09;;;14.36;100.00
50933;BME280;36921;49.006;9.292;2024-02-14T10:51:33;99279.63;;;15.20;100.00
50933;BME280;36921;49.006;9.292;2024-02-14T10:54:03;99286.56;;;15.66;93.33
50933;BME280;36921;49.006;9.292;2024-02-14T10:56:30;99289.47;;;15.21;91.42
50933;BME280;36921;49.006;9.292;2024-02-14T10:58:56;99285.44;;;16.17;90.44
50933;BME280;36921;49.006;9.292;2024-02-14T11:01:27;99272.97;;;18.01;75.90
50933;BME280;36921;49.006;9.292;2024-02-14T11:03:56;99290.94;;;18.49;72.40
50933;BME280;36921;49.006;9.292;2024-02-14T11:06:23;99293.09;;;17.95;73.83
50933;BME280;36921;49.006;9.292;2024-02-14T11:09:01;99300.69;;;18.57;72.27
50933;BME280;36921;49.006;9.292;2024-02-14T11:11:29;99309.56;;;17.29;75.66
50933;BME280;36921;49.006;9.292;2024-02-14T11:13:58;99308.56;;;17.12;78.09
50933;BME280;36921;49.006;9.292;2024-02-14T11:16:25;99295.66;;;16.40;83.18
50933;BME280;36921;49.006;9.292;2024-02-14T11:18:53;99300.66;;;16.43;86.04
50933;BME280;36921;49.006;9.292;2024-02-14T11:21:19;99276.41;;;16.65;86.78
50933;BME280;36921;49.006;9.292;2024-02-14T11:23:53;99285.78;;;16.21;86.20
50933;BME280;36921;49.006;9.292;2024-02-14T11:26:19;99276.09;;;15.70;94.57
50933;BME280;36921;49.006;9.292;2024-02-14T11:28:45;99300.28;;;15.03;100.00
50933;BME280;36921;49.006;9.292;2024-02-14T11:31:16;99310.38;;;14.06;100.00
50933;BME280;36921;49.006;9.292;2024-02-14T11:33:42;99290.53;;;13.85;100.00
50933;BME280;36921;49.006;9.292;2024-02-14T11:36:11;99303.72;;;13.08;100.00
50933;BME280;36921;49.006;9.292;2024-02-14T11:38:36;99319.19;;;13.14;100.00
50933;BME280;36921;49.006;9.292;2024-02-14T11:41:02;99312.50;;;13.10;100.00
50933;BME280;36921;49.006;9.292;2024-02-14T11:43:29;99318.97;;;13.09;100.00
50933;BME280;36921;49.006;9.292;2024-02-14T11:45:54;99305.81;;;13.06;100.00
50933;BME280;36921;49.006;9.292;2024-02-14T11:48:20;99310.84;;;13.16;100.00
50933;BME280;36921;49.006;9.292;2024-02-14T11:50:46;99320.63;;;12.84;100.00
50933;BME280;36921;49.006;9.292;2024-02-14T11:53:13;99329.84;;;13.16;100.00
50933;BME280;36921;49.006;9.292;2024-02-14T11:55:40;99315.69;;;13.34;100.00
50933;BME280;36921;49.006;9.292;2024-02-14T12:00:39;99319.00;;;13.76;100.00
50933;BME280;36921;49.006;9.292;2024-02-14T12:03:07;99323.59;;;13.62;100.00
50933;BME280;36921;49.006;9.292;2024-02-14T12:05:33;99305.19;;;13.11;100.00
50933;BME280;36921;49.006;9.292;2024-02-14T12:08:00;99319.03;;;13.29;100.00
50933;BME280;36921;49.006;9.292;2024-02-14T12:10:26;99324.69;;;13.34;100.00
50933;BME280;36921;49.006;9.292;2024-02-14T12:12:51;99324.69;;;13.34;100.00
50933;BME280;36921;49.006;9.292;2024-02-14T12:15:17;99324.03;;;13.72;100.00
50933;BME280;36921;49.006;9.292;2024-02-14T12:17:42;99293.75;;;13.29;100.00
50933;BME280;36921;49.006;9.292;2024-02-14T12:20:08;99287.84;;;13.12;100.00
50933;BME280;36921;49.006;9.292;2024-02-14T12:22:39;99278.25;;;13.36;100.00
50933;BME280;36921;49.006;9.292;2024-02-14T12:25:08;99270.53;;;13.40;100.00
50933;BME280;36921;49.006;9.292;2024-02-14T12:27:36;99274.09;;;13.47;100.00
50933;BME280;36921;49.006;9.292;2024-02-14T12:30:07;99258.75;;;13.72;100.00
50933;BME280;36921;49.006;9.292;2024-02-14T12:32:32;99264.59;;;13.89;100.00
50933;BME280;36921;49.006;9.292;2024-02-14T12:35:01;99302.09;;;14.84;100.00
50933;BME280;36921;49.006;9.292;2024-02-14T12:37:26;99291.03;;;15.10;100.00
50933;BME280;36921;49.006;9.292;2024-02-14T12:39:51;99284.88;;;15.72;100.00
50933;BME280;36921;49.006;9.292;2024-02-14T12:42:18;99283.59;;;15.49;100.00
50933;BME280;36921;49.006;9.292;2024-02-14T12:44:50;99277.31;;;16.11;100.00
50933;BME280;36921;49.006;9.292;2024-02-14T12:47:15;99270.63;;;16.25;100.00
50933;BME280;36921;49.006;9.292;2024-02-14T12:49:41;99280.75;;;16.55;100.00
50933;BME280;36921;49.006;9.292;2024-02-14T12:52:06;99265.31;;;16.49;100.00
50933;BME280;36921;49.006;9.292;2024-02-14T12:54:31;99261.16;;;16.09;100.00
50933;BME280;36921;49.006;9.292;2024-02-14T12:56:57;99264.13;;;16.08;100.00